Strakonice, Czech Republic
Current Conditions -  °F | °C
As of 8:00 AM on Thursday 29 Jan 2015 (Local Time) from LKLN Reporting Station
Clear Clear  
Wind Chill: 30°   Ceiling: Unl
Heat Index: 30°   Visibility: 6mi
Dew Point: 28°   Wind: 3mph
Humidity: 93%   Direction: NA
Pressure: 29.44"   Gusts: NA
Location:  49.26°N, 13.91°E
Report Text: LKLN 290600Z AUTO VRB03KT CAVOK M01/M02 Q0997
Loading
Personal Weather Stations






























Interactive Weather Map New forecast layout! Learn more

10-Day Weather Forecast

Advertisements
Track Severe Weather on mobile